Augusta, Kentucky
Current Conditions -  °F | °C
As of 6:55 PM on Thursday 27 Nov 2014 (Local Time) from KFGX Reporting Station
Overcast Overcast  
Wind Chill: 21°   Ceiling: 3200
Heat Index: 29°   Visibility: 7mi
Dew Point: 26°   Wind: 9mph
Humidity: 89%   Direction: 280°W
Pressure: 30.37"   Gusts: NA
Location:  38.77°N, 84.01°W
Report Text: KFGX 272355Z AUTO 28008KT 7SM SCT015 OVC032 M01/M03 A3037 RMK AO2 T10151031 10007 21016
Loading
Personal Weather Stations






























Interactive Weather Map New forecast layout! Learn more

10-Day Weather Forecast

Advertisements
Track Severe Weather on mobile